Time;durP1;ratioP1;P1;durP2;ratioP2;P2;SDS_P1;SDS_P2;PMS_P1;PMS_P2;Temp;Humidity;BMP_temperature;BMP_pressure;BME280_temperature;BME280_humidity;BME280_pressure;Samples;Min_cycle;Max_cycle;Signal;HPM_P1;HPM_P2
2023/06/25 00:00:20;;;;;;;9.90;8.90;;;20.10;99.90;;;;;;5053514;28;20191;-88
2023/06/25 00:02:47;;;;;;;10.68;9.63;;;20.10;99.90;;;;;;5053170;28;20643;-86
2023/06/25 00:05:15;;;;;;;10.48;9.30;;;20.10;99.90;;;;;;5034447;28;20245;-86
2023/06/25 00:07:41;;;;;;;14.98;13.38;;;20.10;99.90;;;;;;5031546;28;20218;-84
2023/06/25 00:10:09;;;;;;;13.82;12.32;;;20.10;99.90;;;;;;5031815;28;20282;-86
2023/06/25 00:12:37;;;;;;;13.65;12.00;;;20.10;99.90;;;;;;5031897;28;20276;-84
2023/06/25 00:15:05;;;;;;;15.05;13.05;;;20.10;99.90;;;;;;5032772;28;20264;-81
2023/06/25 00:17:32;;;;;;;13.50;12.10;;;20.10;99.90;;;;;;5035875;28;20269;-82
2023/06/25 00:19:59;;;;;;;11.80;10.07;;;20.10;99.90;;;;;;5035502;28;20193;-81
2023/06/25 00:22:28;;;;;;;12.35;10.70;;;20.10;99.90;;;;;;5035220;28;20199;-83
2023/06/25 00:24:55;;;;;;;12.40;10.88;;;20.10;99.90;;;;;;5034695;28;20198;-82
2023/06/25 00:27:22;;;;;;;12.43;11.23;;;20.10;99.90;;;;;;5034794;28;20834;-82
2023/06/25 00:29:50;;;;;;;10.80;9.70;;;20.00;99.90;;;;;;5034193;28;20634;-82
2023/06/25 00:32:17;;;;;;;11.40;10.25;;;20.00;99.90;;;;;;5048714;28;20630;-80
2023/06/25 00:34:44;;;;;;;11.52;10.32;;;20.00;99.90;;;;;;5054817;28;20201;-80
2023/06/25 00:37:17;;;;;;;10.50;9.57;;;20.00;99.90;;;;;;5039768;28;20213;-81
2023/06/25 00:39:45;;;;;;;13.10;11.20;;;20.00;99.90;;;;;;5034607;28;20654;-79
2023/06/25 00:42:11;;;;;;;11.57;10.38;;;20.00;99.90;;;;;;5035065;28;20245;-82
2023/06/25 00:44:40;;;;;;;15.25;13.65;;;20.00;99.90;;;;;;5034352;28;20205;-82
2023/06/25 00:47:12;;;;;;;13.35;11.43;;;20.00;99.90;;;;;;5034605;28;20676;-82
2023/06/25 00:49:39;;;;;;;14.07;11.52;;;20.00;99.90;;;;;;5034032;28;20253;-80
2023/06/25 00:52:08;;;;;;;12.43;11.13;;;20.00;99.90;;;;;;5034000;28;20348;-80
2023/06/25 00:54:38;;;;;;;12.73;11.10;;;20.00;99.90;;;;;;5034825;28;20213;-83
2023/06/25 00:57:06;;;;;;;11.23;10.13;;;20.00;99.90;;;;;;5034102;28;20278;-81
2023/06/25 00:59:33;;;;;;;10.32;9.32;;;20.00;99.90;;;;;;5034302;28;20623;-81
2023/06/25 01:02:10;;;;;;;10.70;9.50;;;20.00;99.90;;;;;;5034532;28;20276;-79
2023/06/25 01:04:43;;;;;;;10.25;9.30;;;19.90;99.90;;;;;;5033705;28;20198;-80
2023/06/25 01:07:16;;;;;;;10.85;9.75;;;19.90;99.90;;;;;;5034216;28;20511;-79
2023/06/25 01:09:47;;;;;;;9.07;8.18;;;19.90;99.90;;;;;;5034439;28;20194;-79
2023/06/25 01:12:14;;;;;;;11.48;9.60;;;19.90;99.90;;;;;;5033989;28;20306;-80
2023/06/25 01:14:42;;;;;;;8.57;7.85;;;19.90;99.90;;;;;;5034355;28;20198;-81
2023/06/25 01:17:09;;;;;;;11.15;10.05;;;19.90;99.90;;;;;;5034123;28;20231;-81
2023/06/25 01:19:38;;;;;;;10.48;9.40;;;19.80;99.90;;;;;;5033470;28;20545;-81
2023/06/25 01:22:06;;;;;;;10.25;9.25;;;19.80;99.90;;;;;;5034282;28;20199;-80
2023/06/25 01:24:35;;;;;;;8.95;7.72;;;19.80;99.90;;;;;;5034242;28;20772;-82
2023/06/25 01:27:04;;;;;;;8.75;7.95;;;19.80;99.90;;;;;;5033058;28;20252;-80
2023/06/25 01:29:33;;;;;;;8.15;7.38;;;19.70;99.90;;;;;;5033700;28;20293;-82
2023/06/25 01:32:00;;;;;;;9.43;8.52;;;19.80;99.90;;;;;;5033854;28;20205;-79
2023/06/25 01:34:27;;;;;;;10.07;9.05;;;19.70;99.90;;;;;;5033834;28;20237;-82
2023/06/25 01:36:54;;;;;;;8.77;7.95;;;19.70;99.90;;;;;;5034034;28;20550;-80
2023/06/25 01:39:22;;;;;;;8.55;7.75;;;19.70;99.90;;;;;;5033395;28;20228;-84
2023/06/25 01:41:51;;;;;;;9.90;8.30;;;19.70;99.90;;;;;;5034279;28;20209;-84
2023/06/25 01:44:20;;;;;;;9.02;7.88;;;19.60;99.90;;;;;;5034784;28;20191;-84
2023/06/25 01:46:47;;;;;;;9.07;8.20;;;19.60;99.90;;;;;;5034197;28;20210;-86
2023/06/25 01:49:14;;;;;;;9.55;8.55;;;19.60;99.90;;;;;;5034783;28;20300;-85
2023/06/25 01:51:41;;;;;;;8.35;7.55;;;19.60;99.90;;;;;;5039297;28;20193;-80
2023/06/25 01:54:08;;;;;;;9.25;8.23;;;19.60;99.90;;;;;;5054498;28;20265;-85
2023/06/25 01:56:35;;;;;;;8.73;7.93;;;19.60;99.90;;;;;;5055448;28;20244;-85
2023/06/25 01:59:03;;;;;;;8.07;7.38;;;19.50;99.90;;;;;;5054143;28;20452;-82
2023/06/25 02:01:32;;;;;;;9.38;8.55;;;19.50;99.90;;;;;;5046360;28;20229;-81
2023/06/25 02:03:59;;;;;;;8.07;7.28;;;19.50;99.90;;;;;;5033868;28;20270;-79
2023/06/25 02:06:26;;;;;;;8.68;7.80;;;19.40;99.90;;;;;;5033926;28;20625;-86
2023/06/25 02:08:53;;;;;;;9.05;8.15;;;19.40;99.90;;;;;;5033011;28;20201;-82
2023/06/25 02:11:20;;;;;;;8.65;7.75;;;19.40;99.90;;;;;;5033335;28;20206;-80
2023/06/25 02:13:47;;;;;;;8.18;7.43;;;19.30;99.90;;;;;;5033848;28;20225;-82
2023/06/25 02:16:16;;;;;;;9.13;8.32;;;19.30;99.90;;;;;;5033079;28;20505;-82
2023/06/25 02:18:43;;;;;;;8.23;7.43;;;19.30;99.90;;;;;;5033853;28;20199;-82
2023/06/25 02:21:09;;;;;;;7.63;6.93;;;19.30;99.90;;;;;;5032411;28;20242;-83
2023/06/25 02:23:37;;;;;;;9.05;8.15;;;19.20;99.90;;;;;;5032914;28;20798;-86
2023/06/25 02:26:04;;;;;;;8.50;7.70;;;19.20;99.90;;;;;;5033445;28;20190;-86
2023/06/25 02:28:31;;;;;;;9.40;8.40;;;19.20;99.90;;;;;;5032138;28;20198;-82
2023/06/25 02:30:58;;;;;;;7.75;7.05;;;19.20;99.90;;;;;;5033484;28;20241;-83
2023/06/25 02:33:26;;;;;;;8.50;7.63;;;19.20;99.90;;;;;;5033287;28;20688;-85
2023/06/25 02:35:53;;;;;;;9.25;8.35;;;19.10;99.90;;;;;;5033244;28;20769;-83
2023/06/25 02:38:20;;;;;;;8.45;7.63;;;19.10;99.90;;;;;;5032875;28;20583;-85
2023/06/25 02:40:47;;;;;;;9.90;8.90;;;19.10;99.90;;;;;;5033590;28;20591;-83
2023/06/25 02:43:14;;;;;;;9.57;8.55;;;19.10;99.90;;;;;;5032213;28;20643;-82
2023/06/25 02:45:41;;;;;;;9.65;8.18;;;19.00;99.90;;;;;;5033475;28;20230;-80
2023/06/25 02:48:08;;;;;;;12.93;10.68;;;19.00;99.90;;;;;;5033008;28;20214;-82
2023/06/25 02:50:37;;;;;;;10.55;9.50;;;19.00;99.90;;;;;;5033078;28;20191;-84
2023/06/25 02:53:03;;;;;;;9.10;8.20;;;19.00;99.90;;;;;;5047310;28;20225;-80
2023/06/25 02:55:30;;;;;;;9.10;8.20;;;19.00;99.90;;;;;;5032784;28;20207;-81
2023/06/25 02:57:57;;;;;;;9.45;8.50;;;19.00;99.90;;;;;;5041561;28;20210;-86
2023/06/25 03:00:24;;;;;;;10.63;9.35;;;19.00;99.90;;;;;;5053804;28;20194;-85
2023/06/25 03:02:51;;;;;;;10.15;9.15;;;19.00;99.90;;;;;;5053856;28;20221;-86
2023/06/25 03:05:18;;;;;;;9.73;8.48;;;19.00;99.90;;;;;;5053016;28;20209;-85
2023/06/25 03:07:54;;;;;;;9.40;7.90;;;19.00;99.90;;;;;;5032682;28;20301;-80
2023/06/25 03:10:24;;;;;;;8.75;7.85;;;19.00;99.90;;;;;;5031415;28;20208;-81
2023/06/25 03:12:51;;;;;;;8.45;7.65;;;19.00;99.90;;;;;;5032645;28;20227;-82
2023/06/25 03:15:18;;;;;;;8.50;7.60;;;19.00;99.90;;;;;;5033159;28;20601;-82
2023/06/25 03:17:45;;;;;;;7.63;6.90;;;19.00;99.90;;;;;;5033047;28;20242;-85
2023/06/25 03:20:13;;;;;;;6.85;6.25;;;19.00;99.90;;;;;;5032771;28;20698;-84
2023/06/25 03:22:40;;;;;;;7.50;6.80;;;18.90;99.90;;;;;;5033260;28;20205;-86
2023/06/25 03:25:10;;;;;;;8.98;8.07;;;18.90;99.90;;;;;;5033186;28;20207;-85
2023/06/25 03:27:37;;;;;;;7.60;6.85;;;18.90;99.90;;;;;;5032456;28;20629;-85
2023/06/25 03:30:05;;;;;;;8.57;7.70;;;18.90;99.90;;;;;;5033270;28;20221;-84
2023/06/25 03:32:32;;;;;;;7.70;7.00;;;18.90;99.90;;;;;;5032662;28;20290;-83
2023/06/25 03:35:00;;;;;;;8.88;7.95;;;18.90;99.90;;;;;;5033236;28;20289;-81
2023/06/25 03:37:27;;;;;;;7.20;6.60;;;18.90;99.90;;;;;;5037436;28;20814;-82
2023/06/25 03:39:54;;;;;;;7.35;6.65;;;18.90;99.90;;;;;;5052410;28;20228;-84
2023/06/25 03:42:23;;;;;;;6.13;5.60;;;18.90;99.90;;;;;;5035025;28;20568;-81
2023/06/25 03:44:53;;;;;;;7.15;6.45;;;18.80;99.90;;;;;;5046355;28;20202;-82
2023/06/25 03:47:20;;;;;;;8.55;7.47;;;18.80;99.90;;;;;;5032091;28;20237;-81
2023/06/25 03:49:47;;;;;;;7.85;6.90;;;18.80;99.90;;;;;;5033451;28;20225;-81
2023/06/25 03:52:14;;;;;;;7.68;6.82;;;18.80;99.90;;;;;;5036426;28;20222;-82
2023/06/25 03:54:41;;;;;;;7.43;6.80;;;18.80;99.90;;;;;;5036218;28;20260;-85
2023/06/25 03:57:08;;;;;;;9.07;7.70;;;18.80;99.90;;;;;;5036914;28;20225;-81
2023/06/25 03:59:37;;;;;;;7.22;6.53;;;18.80;99.90;;;;;;5045474;28;20504;-82
2023/06/25 04:02:05;;;;;;;9.73;8.35;;;18.80;99.90;;;;;;5043374;28;20296;-82
2023/06/25 04:04:32;;;;;;;8.80;8.00;;;18.80;99.90;;;;;;5036530;28;20277;-81
2023/06/25 04:06:59;;;;;;;8.27;7.47;;;18.80;99.90;;;;;;5036317;28;20235;-83
2023/06/25 04:09:27;;;;;;;9.27;7.60;;;18.90;99.90;;;;;;5036194;28;20199;-81
2023/06/25 04:11:53;;;;;;;8.23;7.38;;;18.90;99.90;;;;;;5036612;28;20206;-82
2023/06/25 04:14:20;;;;;;;9.32;8.35;;;18.90;99.90;;;;;;5035549;28;20261;-83
2023/06/25 04:16:49;;;;;;;7.88;7.13;;;18.90;99.90;;;;;;5035381;28;20694;-83
2023/06/25 04:19:16;;;;;;;8.48;7.68;;;18.90;99.90;;;;;;5035635;28;20203;-82
2023/06/25 04:21:43;;;;;;;7.95;7.15;;;19.00;99.90;;;;;;5035998;28;20261;-82
2023/06/25 04:24:10;;;;;;;8.18;7.38;;;19.00;99.90;;;;;;5036081;28;20191;-81
2023/06/25 04:26:37;;;;;;;9.48;8.10;;;19.10;99.90;;;;;;5035129;28;20615;-80
2023/06/25 04:29:04;;;;;;;8.50;7.60;;;19.20;99.90;;;;;;5034930;28;20191;-82
2023/06/25 04:31:30;;;;;;;10.35;8.65;;;19.20;99.90;;;;;;5035374;28;20813;-82
2023/06/25 04:33:59;;;;;;;9.80;8.80;;;19.30;99.90;;;;;;5036575;28;20717;-85
2023/06/25 04:36:26;;;;;;;8.25;7.40;;;19.40;99.90;;;;;;5036096;28;20226;-85
2023/06/25 04:38:53;;;;;;;8.80;7.57;;;19.40;99.90;;;;;;5036332;28;20245;-81
2023/06/25 04:41:20;;;;;;;8.25;7.45;;;19.50;99.90;;;;;;5035665;28;20294;-83
2023/06/25 04:43:47;;;;;;;7.93;7.22;;;19.50;99.90;;;;;;5034937;28;20202;-84
2023/06/25 04:46:13;;;;;;;9.02;7.80;;;19.50;99.90;;;;;;5036076;28;20240;-82
2023/06/25 04:48:45;;;;;;;8.73;7.65;;;19.50;99.90;;;;;;5036277;28;20234;-84
2023/06/25 04:51:14;;;;;;;7.47;6.65;;;19.50;99.90;;;;;;5035893;28;20226;-85
2023/06/25 04:53:41;;;;;;;8.93;8.02;;;19.60;99.90;;;;;;5035863;28;20242;-85
2023/06/25 04:56:08;;;;;;;9.57;8.68;;;19.60;99.90;;;;;;5035839;28;21031;-86
2023/06/25 04:58:35;;;;;;;9.90;8.85;;;19.70;99.90;;;;;;5035522;28;20264;-85
2023/06/25 05:01:03;;;;;;;9.50;8.43;;;19.80;99.90;;;;;;5034817;28;20207;-86
2023/06/25 05:03:30;;;;;;;11.75;8.52;;;19.90;99.90;;;;;;5050803;28;20206;-82
2023/06/25 05:05:57;;;;;;;10.10;8.68;;;20.00;99.90;;;;;;5054975;28;20493;-83
2023/06/25 05:08:25;;;;;;;10.43;9.32;;;20.10;99.90;;;;;;5042446;28;20211;-83
2023/06/25 05:10:52;;;;;;;10.50;8.77;;;20.20;99.90;;;;;;5034572;28;20203;-82
2023/06/25 05:13:20;;;;;;;9.77;8.77;;;20.40;99.90;;;;;;5034966;28;20323;-82
2023/06/25 05:15:46;;;;;;;12.45;11.02;;;20.50;99.90;;;;;;5034820;28;20590;-83
2023/06/25 05:18:13;;;;;;;10.68;9.57;;;20.70;99.90;;;;;;5034277;28;20264;-81
2023/06/25 05:20:40;;;;;;;11.20;8.68;;;20.90;99.90;;;;;;5034875;28;20229;-81
2023/06/25 05:23:09;;;;;;;11.20;10.10;;;21.10;99.90;;;;;;5035060;28;20631;-82
2023/06/25 05:25:38;;;;;;;13.75;10.75;;;21.30;99.90;;;;;;5038709;28;20812;-84
2023/06/25 05:28:05;;;;;;;9.45;8.45;;;21.60;99.90;;;;;;5054890;28;20225;-82
2023/06/25 05:30:33;;;;;;;9.82;8.82;;;22.00;99.90;;;;;;5049707;28;20228;-83
2023/06/25 05:33:00;;;;;;;14.20;10.88;;;22.30;99.90;;;;;;5034337;28;20226;-82
2023/06/25 05:35:28;;;;;;;9.63;8.63;;;22.70;99.90;;;;;;5034089;28;20199;-83
2023/06/25 05:37:56;;;;;;;9.55;8.65;;;23.10;99.90;;;;;;5035188;28;20298;-83
2023/06/25 05:40:23;;;;;;;10.50;9.27;;;23.50;99.90;;;;;;5039824;28;20193;-83
2023/06/25 05:42:52;;;;;;;10.80;9.80;;;23.90;99.90;;;;;;5054607;28;20229;-84
2023/06/25 05:45:19;;;;;;;11.13;9.18;;;24.30;99.90;;;;;;5049585;28;20206;-83
2023/06/25 05:47:46;;;;;;;12.75;10.85;;;24.70;99.90;;;;;;5034588;28;20198;-82
2023/06/25 05:50:13;;;;;;;12.07;9.50;;;25.00;99.90;;;;;;5034505;28;20210;-84
2023/06/25 05:52:43;;;;;;;11.15;10.05;;;25.30;99.90;;;;;;5044541;28;20214;-84
2023/06/25 05:55:11;;;;;;;9.73;8.75;;;25.60;99.90;;;;;;5034602;28;20214;-84
2023/06/25 05:57:38;;;;;;;11.75;8.85;;;25.90;99.90;;;;;;5034612;28;20214;-83
2023/06/25 06:00:09;;;;;;;10.52;9.40;;;26.20;99.90;;;;;;5032936;28;20211;-82
2023/06/25 06:02:36;;;;;;;11.88;10.00;;;26.50;99.90;;;;;;5034246;28;20199;-83
2023/06/25 06:05:03;;;;;;;11.23;9.10;;;26.70;9.80;;;;;;5037920;28;20269;-82
2023/06/25 06:07:30;;;;;;;11.10;9.77;;;26.90;1.00;;;;;;5048963;28;20194;-84
2023/06/25 06:09:58;;;;;;;12.55;10.68;;;27.10;1.00;;;;;;5034840;28;20202;-84
2023/06/25 06:12:25;;;;;;;12.07;9.35;;;27.30;1.00;;;;;;5034399;28;20285;-84
2023/06/25 06:14:52;;;;;;;11.93;10.68;;;27.40;1.00;;;;;;5033789;28;20238;-84
2023/06/25 06:17:21;;;;;;;10.80;9.70;;;27.60;1.00;;;;;;5034473;28;20535;-81
2023/06/25 06:19:48;;;;;;;11.70;9.73;;;27.80;1.00;;;;;;5033662;28;20222;-87
2023/06/25 06:22:15;;;;;;;11.13;10.02;;;28.00;1.00;;;;;;5034060;28;20561;-87
2023/06/25 06:24:42;;;;;;;11.98;10.10;;;28.30;1.00;;;;;;5037929;28;20543;-84
2023/06/25 06:27:09;;;;;;;10.82;9.57;;;28.50;99.90;;;;;;5053589;28;20225;-84
2023/06/25 06:29:36;;;;;;;11.45;10.25;;;28.60;99.90;;;;;;5052894;28;20248;-83
2023/06/25 06:32:04;;;;;;;10.00;9.00;;;28.90;1.00;;;;;;5053999;28;20294;-83
2023/06/25 06:34:32;;;;;;;11.77;10.55;;;29.10;99.90;;;;;;5051653;28;20622;-87
2023/06/25 06:36:59;;;;;;;9.88;8.98;;;29.30;1.00;;;;;;5053268;28;20259;-86
2023/06/25 06:39:26;;;;;;;10.25;8.93;;;29.40;5.80;;;;;;5054255;28;20209;-84
2023/06/25 06:41:53;;;;;;;10.02;9.02;;;29.60;95.80;;;;;;5053699;28;20269;-87
2023/06/25 06:44:20;;;;;;;9.48;8.40;;;29.80;99.90;;;;;;5034160;28;20268;-84
2023/06/25 06:46:48;;;;;;;10.57;8.38;;;29.80;99.90;;;;;;5048828;28;20194;-87
2023/06/25 06:49:16;;;;;;;9.45;8.48;;;30.10;99.90;;;;;;5052257;28;20210;-85
2023/06/25 06:51:44;;;;;;;9.65;8.68;;;30.30;99.90;;;;;;5051269;28;20542;-86
2023/06/25 06:54:11;;;;;;;8.90;8.10;;;30.40;99.90;;;;;;5052911;28;20218;-85
2023/06/25 06:56:39;;;;;;;8.45;7.57;;;30.60;99.90;;;;;;5051604;28;20685;-89
2023/06/25 07:09:33;;;;;;;7.00;6.40;;;30.60;99.90;;;;;;4959900;28;20684;-87
2023/06/25 07:12:00;;;;;;;5.65;5.15;;;30.70;99.90;;;;;;5054430;28;20645;-86
2023/06/25 07:14:27;;;;;;;6.57;5.88;;;30.90;99.90;;;;;;5040307;28;20229;-88
2023/06/25 07:16:54;;;;;;;5.75;5.15;;;31.20;99.90;;;;;;5053879;28;20271;-89
2023/06/25 07:19:21;;;;;;;4.78;4.10;;;31.30;99.90;;;;;;5045060;28;20320;-88
2023/06/25 07:21:48;;;;;;;5.30;4.80;;;31.20;99.90;;;;;;5054105;28;20229;-88
2023/06/25 07:24:17;;;;;;;5.03;4.57;;;31.40;99.90;;;;;;5054204;28;20271;-91
2023/06/25 07:26:45;;;;;;;4.65;3.65;;;31.30;99.90;;;;;;5040595;28;20281;-88
2023/06/25 07:29:12;;;;;;;5.18;4.65;;;31.50;99.90;;;;;;5040039;28;20206;-91
2023/06/25 07:31:39;;;;;;;5.50;4.15;;;31.70;99.90;;;;;;5040223;28;20217;-87
2023/06/25 07:34:06;;;;;;;6.00;4.82;;;31.70;99.90;;;;;;5040748;28;20317;-87
2023/06/25 07:36:33;;;;;;;5.18;4.45;;;31.80;99.90;;;;;;5041167;28;20289;-91
2023/06/25 07:39:05;;;;;;;7.07;4.72;;;31.90;99.90;;;;;;5040299;28;20210;-90
2023/06/25 07:41:34;;;;;;;6.47;5.10;;;32.00;99.90;;;;;;5041158;28;20199;-93
2023/06/25 07:44:02;;;;;;;5.65;5.05;;;32.00;99.90;;;;;;5041329;28;20281;-90
2023/06/25 07:46:29;;;;;;;5.50;5.00;;;32.00;99.90;;;;;;5040365;28;20285;-88
2023/06/25 07:48:59;;;;;;;4.10;3.80;;;32.00;99.90;;;;;;5047116;28;20560;-92
2023/06/25 07:51:26;;;;;;;6.50;4.90;;;32.30;99.90;;;;;;5061005;28;20198;-88
2023/06/25 07:53:53;;;;;;;4.55;4.13;;;32.50;99.90;;;;;;5060526;28;20263;-89
2023/06/25 07:56:20;;;;;;;4.70;4.03;;;32.50;99.90;;;;;;5060267;28;20216;-92
2023/06/25 07:58:47;;;;;;;5.53;4.90;;;32.80;99.90;;;;;;5060417;28;20205;-86
2023/06/25 08:01:15;;;;;;;5.60;4.88;;;32.90;99.90;;;;;;5058406;28;20202;-86
2023/06/25 08:03:42;;;;;;;4.90;4.38;;;32.90;99.90;;;;;;5040398;28;20256;-88
2023/06/25 08:06:09;;;;;;;5.88;4.72;;;33.10;99.90;;;;;;5055833;28;20278;-87
2023/06/25 08:08:37;;;;;;;6.35;5.20;;;33.40;99.90;;;;;;5059720;28;20225;-83
2023/06/25 08:11:04;;;;;;;7.72;5.22;;;33.40;99.90;;;;;;5060612;28;20285;-85
2023/06/25 08:13:31;;;;;;;5.40;4.80;;;33.60;99.90;;;;;;5044621;28;20216;-91
2023/06/25 08:15:57;;;;;;;4.40;3.90;;;33.60;99.90;;;;;;5040860;28;20273;-91
2023/06/25 08:18:26;;;;;;;4.03;3.63;;;33.90;99.90;;;;;;5040787;28;20258;-93
2023/06/25 08:20:53;;;;;;;6.05;4.55;;;34.00;99.90;;;;;;5040447;28;20257;-91
2023/06/25 08:23:20;;;;;;;5.60;3.92;;;34.40;99.90;;;;;;5040519;28;20591;-93
2023/06/25 08:25:47;;;;;;;4.78;4.35;;;34.50;99.90;;;;;;5040600;28;20201;-92
2023/06/25 08:28:14;;;;;;;4.20;3.90;;;34.70;99.90;;;;;;5060569;23;20209;-87
2023/06/25 08:30:41;;;;;;;5.30;3.72;;;34.70;99.90;;;;;;5040011;28;20205;-91
2023/06/25 08:33:08;;;;;;;3.97;3.53;;;35.00;99.90;;;;;;5022915;28;20210;-89
2023/06/25 08:35:36;;;;;;;4.70;3.28;;;34.90;99.90;;;;;;5017405;28;20526;-86
2023/06/25 08:38:06;;;;;;;5.68;3.55;;;35.00;99.90;;;;;;5021404;28;20256;-87
2023/06/25 08:40:36;;;;;;;3.72;3.42;;;34.80;99.90;;;;;;5021312;28;20532;-88
2023/06/25 08:43:03;;;;;;;3.13;2.75;;;35.00;99.90;;;;;;5014526;28;20187;-87
2023/06/25 08:45:30;;;;;;;2.95;2.75;;;35.00;99.90;;;;;;5016231;28;20230;-87
2023/06/25 08:48:00;;;;;;;4.85;2.92;;;35.00;99.90;;;;;;5020640;28;20279;-89
2023/06/25 08:50:27;;;;;;;3.67;3.28;;;35.00;99.90;;;;;;5030486;28;20211;-87
2023/06/25 08:52:56;;;;;;;3.70;3.40;;;35.00;99.90;;;;;;5034379;28;20265;-88
2023/06/25 08:55:27;;;;;;;4.65;3.65;;;34.60;99.90;;;;;;5017946;28;20808;-89
2023/06/25 08:57:54;;;;;;;3.10;2.80;;;34.50;99.90;;;;;;5023678;28;20203;-84
2023/06/25 09:00:22;;;;;;;4.75;3.35;;;34.60;99.90;;;;;;5036706;28;20469;-92
2023/06/25 09:02:49;;;;;;;5.03;2.95;;;34.40;99.90;;;;;;5036612;28;20198;-91
2023/06/25 09:05:24;;;;;;;3.13;2.80;;;34.40;99.90;;;;;;5016554;28;20466;-85
2023/06/25 09:07:54;;;;;;;3.42;3.00;;;34.10;99.90;;;;;;5015683;28;20265;-88
2023/06/25 09:10:22;;;;;;;3.45;3.15;;;34.00;99.90;;;;;;5015608;28;20211;-84
2023/06/25 09:12:51;;;;;;;4.10;3.22;;;34.30;99.90;;;;;;5023139;28;20603;-89
2023/06/25 09:15:22;;;;;;;2.85;2.58;;;34.40;99.90;;;;;;5024371;28;20234;-87
2023/06/25 09:17:49;;;;;;;3.13;2.80;;;34.70;99.90;;;;;;5017749;28;20200;-92
2023/06/25 09:20:17;;;;;;;3.35;2.92;;;34.70;99.90;;;;;;5020816;28;20211;-88
2023/06/25 09:22:50;;;;;;;3.60;3.30;;;34.30;99.90;;;;;;5018133;28;20199;-88
2023/06/25 09:25:18;;;;;;;3.58;3.22;;;34.20;99.90;;;;;;5016114;28;20286;-80
2023/06/25 09:27:48;;;;;;;3.72;3.42;;;34.10;99.90;;;;;;5015256;28;20599;-88
2023/06/25 09:30:17;;;;;;;3.63;3.28;;;34.00;99.90;;;;;;5031128;28;20663;-95
2023/06/25 09:32:52;;;;;;;3.45;3.08;;;33.90;99.90;;;;;;5042472;28;20221;-88
2023/06/25 09:35:20;;;;;;;3.35;3.05;;;33.80;99.90;;;;;;5042873;28;20257;-88
2023/06/25 09:37:47;;;;;;;3.20;2.88;;;34.10;99.90;;;;;;5036435;28;20202;-92
2023/06/25 09:40:14;;;;;;;2.78;2.42;;;34.60;99.90;;;;;;5037394;28;20716;-87
2023/06/25 09:42:44;;;;;;;2.85;2.65;;;34.90;99.90;;;;;;5036697;28;20210;-87
2023/06/25 09:45:16;;;;;;;4.50;3.08;;;35.00;99.90;;;;;;5032838;28;20197;-92
2023/06/25 09:47:44;;;;;;;3.58;2.50;;;35.30;99.90;;;;;;5016838;28;20204;-88
2023/06/25 09:50:17;;;;;;;3.35;2.85;;;35.40;99.90;;;;;;5016414;28;20238;-94
2023/06/25 09:52:49;;;;;;;2.88;2.67;;;35.10;99.90;;;;;;5021057;28;20274;-92
2023/06/25 09:55:17;;;;;;;4.60;3.33;;;35.10;99.90;;;;;;5016363;28;20223;-92
2023/06/25 09:57:44;;;;;;;4.35;3.35;;;35.40;99.90;;;;;;5016056;28;20215;-92
2023/06/25 10:00:15;;;;;;;2.92;2.72;;;35.50;99.90;;;;;;5017162;28;20211;-94
2023/06/25 10:02:42;;;;;;;2.65;2.45;;;35.80;99.90;;;;;;5017546;28;20270;-92
2023/06/25 10:05:09;;;;;;;3.58;2.50;;;36.00;99.90;;;;;;5033727;28;20194;-87
2023/06/25 10:07:36;;;;;;;2.97;2.75;;;36.20;99.90;;;;;;5034762;28;20202;-90
2023/06/25 10:10:04;;;;;;;3.33;3.03;;;36.40;99.90;;;;;;5034627;28;20313;-92
2023/06/25 10:12:33;;;;;;;2.72;2.53;;;36.30;99.90;;;;;;5035571;28;20199;-93
2023/06/25 10:15:02;;;;;;;2.83;2.58;;;36.40;99.90;;;;;;5035230;28;20229;-92
2023/06/25 10:17:30;;;;;;;3.28;3.00;;;36.50;99.90;;;;;;5032157;28;20214;-89
2023/06/25 10:19:58;;;;;;;3.42;3.08;;;36.20;99.90;;;;;;5035791;28;20241;-93
2023/06/25 10:22:27;;;;;;;2.97;2.78;;;36.20;99.90;;;;;;5024061;28;20268;-91
2023/06/25 10:24:58;;;;;;;3.05;2.75;;;36.30;99.90;;;;;;5032920;28;20803;-92
2023/06/25 10:27:31;;;;;;;3.40;2.80;;;36.40;99.90;;;;;;5035866;28;20278;-89
2023/06/25 10:29:58;;;;;;;3.95;2.72;;;36.50;99.90;;;;;;5034599;28;20227;-90
2023/06/25 10:32:28;;;;;;;4.32;2.92;;;36.60;99.90;;;;;;5034751;28;20230;-89
2023/06/25 10:35:00;;;;;;;3.92;3.05;;;36.40;99.90;;;;;;5034401;28;20622;-89
2023/06/25 10:37:29;;;;;;;3.13;2.85;;;36.70;99.90;;;;;;5034645;28;20224;-91
2023/06/25 10:40:03;;;;;;;3.25;2.95;;;36.50;99.90;;;;;;5034808;28;20505;-94
2023/06/25 10:42:31;;;;;;;3.63;3.08;;;36.60;99.90;;;;;;5035028;28;20215;-90
2023/06/25 10:44:58;;;;;;;2.78;2.45;;;36.60;99.90;;;;;;5025822;28;20207;-87
2023/06/25 10:47:25;;;;;;;3.70;3.40;;;36.50;99.90;;;;;;5013904;28;20231;-88
2023/06/25 10:49:52;;;;;;;3.40;3.10;;;36.40;99.90;;;;;;5029722;28;20281;-93
2023/06/25 10:52:20;;;;;;;3.50;3.05;;;36.50;99.90;;;;;;5034272;28;20202;-88
2023/06/25 10:54:47;;;;;;;4.30;3.22;;;36.30;99.90;;;;;;5024246;28;20294;-91
2023/06/25 10:57:16;;;;;;;3.45;3.15;;;36.20;99.90;;;;;;5014452;28;20270;-89
2023/06/25 10:59:44;;;;;;;3.40;3.10;;;36.10;99.90;;;;;;5013959;28;20242;-83
2023/06/25 11:02:14;;;;;;;3.47;3.17;;;36.40;99.90;;;;;;5013928;28;20234;-87
2023/06/25 11:04:42;;;;;;;4.00;3.60;;;36.20;99.90;;;;;;5014347;28;20223;-90
2023/06/25 11:07:12;;;;;;;3.35;3.05;;;36.20;99.90;;;;;;5003175;28;20285;-93
2023/06/25 11:09:42;;;;;;;3.47;3.17;;;36.30;99.90;;;;;;5019737;28;20531;-91
2023/06/25 11:12:09;;;;;;;4.25;3.70;;;36.50;99.90;;;;;;5027211;28;20246;-91
2023/06/25 11:14:38;;;;;;;3.42;3.13;;;36.50;99.90;;;;;;5029396;28;20226;-92
2023/06/25 11:17:05;;;;;;;5.13;3.33;;;36.70;99.90;;;;;;5022979;28;20265;-88
2023/06/25 11:19:32;;;;;;;3.63;3.33;;;36.80;99.90;;;;;;5029022;28;20241;-91
2023/06/25 11:21:59;;;;;;;3.50;3.20;;;36.70;99.90;;;;;;5026495;28;20202;-93
2023/06/25 11:24:27;;;;;;;3.55;3.25;;;36.50;99.90;;;;;;5020750;28;20192;-85
2023/06/25 11:26:59;;;;;;;4.78;3.65;;;36.50;99.90;;;;;;5014222;28;20195;-90
2023/06/25 11:29:36;;;;;;;4.00;3.20;;;36.00;99.90;;;;;;5013587;28;20314;-84
2023/06/25 11:32:05;;;;;;;3.85;3.22;;;36.30;99.90;;;;;;5013358;28;20211;-86
2023/06/25 11:34:33;;;;;;;4.68;2.92;;;36.40;99.90;;;;;;5013623;28;20626;-87
2023/06/25 11:37:09;;;;;;;5.13;3.67;;;36.60;99.90;;;;;;5013438;28;20317;-89
2023/06/25 11:39:43;;;;;;;3.33;3.00;;;36.80;99.90;;;;;;5011188;28;20200;-91
2023/06/25 11:42:16;;;;;;;4.38;3.80;;;37.00;99.90;;;;;;4994216;28;20232;-92
2023/06/25 11:44:44;;;;;;;3.63;3.30;;;36.80;99.90;;;;;;4994150;28;20199;-90
2023/06/25 11:47:11;;;;;;;4.30;3.28;;;36.90;99.90;;;;;;5004422;28;20642;-86
2023/06/25 11:49:40;;;;;;;3.42;3.17;;;37.00;99.90;;;;;;5012516;28;20243;-89
2023/06/25 11:52:09;;;;;;;3.97;3.67;;;37.10;99.90;;;;;;5013753;28;20199;-83
2023/06/25 11:54:35;;;;;;;3.65;3.28;;;37.10;99.90;;;;;;4999983;28;20230;-83
2023/06/25 11:57:02;;;;;;;4.03;3.65;;;37.00;99.90;;;;;;4992739;28;20234;-83
2023/06/25 11:59:31;;;;;;;3.92;3.63;;;37.00;99.90;;;;;;4992437;28;20255;-82
2023/06/25 12:01:58;;;;;;;4.00;3.60;;;36.90;99.90;;;;;;4992476;28;20249;-85
2023/06/25 12:04:25;;;;;;;4.15;3.75;;;36.80;99.90;;;;;;4994380;28;20220;-90
2023/06/25 12:06:52;;;;;;;4.30;3.58;;;36.50;99.90;;;;;;4993620;28;20199;-88
2023/06/25 12:09:19;;;;;;;9.00;4.30;;;36.40;99.90;;;;;;5011799;28;20258;-87
2023/06/25 12:11:47;;;;;;;4.95;3.67;;;36.20;99.90;;;;;;5016188;28;20195;-87
2023/06/25 12:14:14;;;;;;;4.35;3.47;;;35.80;99.90;;;;;;5016366;28;20203;-84
2023/06/25 12:16:42;;;;;;;4.63;3.80;;;35.70;99.90;;;;;;5002520;28;20326;-90
2023/06/25 12:19:09;;;;;;;4.03;3.40;;;35.70;99.90;;;;;;4997688;28;20200;-89
2023/06/25 12:21:36;;;;;;;3.50;3.20;;;35.70;99.90;;;;;;5015571;28;20227;-91
2023/06/25 12:24:04;;;;;;;6.82;4.00;;;35.70;99.90;;;;;;5017347;28;20230;-89
2023/06/25 12:26:31;;;;;;;4.30;3.55;;;35.70;99.90;;;;;;5017063;28;20750;-88
2023/06/25 12:28:58;;;;;;;4.38;3.92;;;35.60;99.90;;;;;;5020791;28;20400;-88
2023/06/25 12:31:25;;;;;;;3.65;3.33;;;35.70;99.90;;;;;;5035780;28;20203;-88
2023/06/25 12:33:54;;;;;;;4.07;3.17;;;35.90;99.90;;;;;;5036944;28;20231;-86
2023/06/25 12:36:21;;;;;;;4.57;3.33;;;36.00;99.90;;;;;;5029398;28;20242;-88
2023/06/25 12:38:48;;;;;;;4.53;3.80;;;36.20;99.90;;;;;;5017023;28;20261;-89
2023/06/25 12:41:15;;;;;;;6.68;3.78;;;36.40;99.90;;;;;;5017689;28;20286;-90
2023/06/25 12:43:42;;;;;;;4.03;3.40;;;36.40;99.90;;;;;;5017113;28;20611;-92
2023/06/25 12:46:09;;;;;;;5.50;3.92;;;36.40;99.90;;;;;;5017332;28;20210;-91
2023/06/25 12:48:36;;;;;;;4.45;3.90;;;36.20;99.90;;;;;;5016008;28;20306;-88
2023/06/25 12:51:04;;;;;;;4.40;3.80;;;36.00;99.90;;;;;;5014903;28;20831;-86
2023/06/25 12:53:31;;;;;;;4.85;3.92;;;35.80;99.90;;;;;;5016192;28;20290;-89
2023/06/25 12:55:58;;;;;;;4.05;3.63;;;35.50;99.90;;;;;;5015549;28;20729;-86